• Join FlightAware (Why Join?)
  • Login
  • US Flag 
08:39PM EDT


 

Airport Tracker/Info


-or-


 

Live Flight TrackerFlight Track Log ✈ N98834 ✈ 15-Feb-2014 ✈ KPIE - KBCT

Flight Track Log - Related Links

Times and Time Zones

All times are in EST time to prevent confusion due to time zone crossing. See the N98834 flight status page for this flight to view local times or setup timezone preferences in your user account.

Time Position Orientation Groundspeed Altitude Reporting Facility
EST Latitude Longitude Course Direction KTS MPH feet Rate Location/Type
02:51PM 27.9333 -82.6833 319° Northwest 123 142 400  Level Tampa TRACON
02:52PM 27.9500 -82.7000 319° Northwest 111 128 1,500 1,140 Climbing Tampa TRACON
02:53PM 27.9833 -82.7167 336° Northwest 111 128 2,700 720 Climbing Tampa TRACON
02:54PM 28.0167 -82.7000 24° Northeast 151 174 3,000 120 Climbing Tampa TRACON
02:55PM 28.0000 -82.6500 111° Southeast 215 247 3,000  Level Tampa TRACON
02:56PM 27.9833 -82.5833 106° East 210 242 3,000  Level Tampa TRACON
02:57PM 27.9667 -82.5167 106° East 201 231 3,000  Level Tampa TRACON
02:58PM 27.9667 -82.4667 90° East 203 234 3,000 60 Level Tampa TRACON
02:59PM 27.9500 -82.4000 106° East 207 238 3,200 540 Climbing Tampa TRACON
03:00PM 27.9500 -82.3500 90° East 179 206 4,100 900 Climbing Tampa TRACON
03:01PM 27.9333 -82.2833 106° East 164 189 5,100 840 Climbing Tampa TRACON
03:02PM 27.9000 -82.2500 139° Southeast 178 205 5,900 540 Climbing Tampa TRACON
03:04PM 27.8403 -82.1444 123° Southeast 190 219 7,000 300 Climbing Miami Center
03:05PM 27.7986 -82.0886 130° Southeast 205 236 7,000  Level Miami Center
03:06PM 27.7631 -82.0331 126° Southeast 223 257 7,000  Level Miami Center
03:07PM 27.7192 -81.9725 129° Southeast 223 257 7,000  Level Miami Center
03:08PM 27.6814 -81.9192 129° Southeast 217 250 7,000  Level Miami Center
03:09PM 27.6417 -81.8636 129° Southeast 217 250 7,000  Level Miami Center
03:10PM 27.6058 -81.8153 130° Southeast 217 250 7,000  Level Miami Center
03:11PM 27.5658 -81.7619 130° Southeast 217 250 7,000  Level Miami Center
03:12PM 27.5242 -81.7039 129° Southeast 217 250 7,000  Level Miami Center
03:13PM 27.4861 -81.6508 129° Southeast 217 250 7,000  Level Miami Center
03:14PM 27.4461 -81.5978 130° Southeast 217 250 7,000  Level Miami Center
03:15PM 27.4083 -81.5447 129° Southeast 217 250 7,000  Level Miami Center
03:16PM 27.3683 -81.4917 130° Southeast 217 250 7,000  Level Miami Center
03:17PM 27.3303 -81.4364 128° Southeast 217 250 7,000  Level Miami Center
03:18PM 27.2903 -81.3811 129° Southeast 217 250 7,000  Level Miami Center
03:19PM 27.2564 -81.3331 128° Southeast 217 250 7,000  Level Miami Center
03:20PM 27.2161 -81.2800 130° Southeast 217 250 7,000  Level Miami Center
03:21PM 27.1742 -81.2225 129° Southeast 217 250 7,100  Climbing Miami Center
03:22PM 27.1381 -81.1722 129° Southeast 212 244 7,100  Level Miami Center
03:23PM 27.1000 -81.1194 129° Southeast 217 250 7,100  Level Miami Center
03:24PM 27.0658 -81.0739 130° Southeast 212 244 7,100  Level Miami Center
03:25PM 27.0256 -81.0164 128° Southeast 212 244 7,100  Level Miami Center
03:26PM 26.9875 -80.9661 130° Southeast 212 244 7,100  Level Miami Center
03:27PM 26.9514 -80.9136 128° Southeast 212 244 7,100  Level Miami Center
03:28PM 26.9150 -80.8681 132° Southeast 212 244 7,100  Level Miami Center
03:29PM 26.8808 -80.8158 126° Southeast 212 244 7,100  Level Miami Center
03:30PM 26.8367 -80.7583 131° Southeast 212 244 7,100  Level Miami Center
03:31PM 26.7981 -80.7106 132° Southeast 212 244 7,100  Level Miami Center
03:32PM 26.7619 -80.6628 130° Southeast 215 247 7,100  Level Miami Center
03:33PM 26.7256 -80.6083 127° Southeast 209 241 7,100  Level Miami Center
03:34PM 26.6914 -80.5558 126° Southeast 209 241 7,100 -240 Level Miami Center
03:35PM 26.6617 -80.4992 120° Southeast 215 247 6,700 -480 Descending Miami Center
03:36PM 26.6656 -80.4272 87° East 208 239 6,200 -540 Descending Miami Center
03:38PM 26.6018 -80.3938 155° Southeast  Level FlightAware Approximate
03:45PM 26.3785 -80.1077 180° South  Level Estimated
03:46PM 26.3785 -80.1077 180° South  Level Estimated
03:47PM 26.3785 -80.1077 180° South  Level Estimated
03:48PM 26.3785 -80.1077 180° South  Level Estimated
03:49PM 26.3785 -80.1077 180° South  Level Estimated
03:50PM 26.3785 -80.1077 180° South  Level Estimated
03:51PM 26.3785 -80.1077 180° South  Level Estimated
03:52PM 26.3785 -80.1077 180° South  Level Estimated
03:53PM 26.3785 -80.1077 180° South  Level Estimated
03:54PM 26.3785 -80.1077 180° South  Level Estimated
03:55PM 26.3785 -80.1077 180° South  Level Estimated
03:56PM 26.3785 -80.1077 180° South  Level Estimated